x

West Tampa - 112 Nm Wnw Of Tampa, Fl (42036) Wave Buoy

3:50am - Sat 19th Apr 2014 All times are EDT. -4 hours from GMT.

  • Sig Wave height 5.2ft
  • Swell Direction
  • Peak Period 6s
  • Average Period 5s
  • Wind
    18mph, 22mph gusts
  • Sea Temp 69°f
  • Air Temp 63°f
  • Sea Pressure 1012.5mb
  • West Tampa  - 112 Nm Wnw Of Tampa, Fl
  • West Tampa  - 112 Nm Wnw Of Tampa, Fl

More Historic Weather Station data

Upgrade to MSW Pro to gain access to the past 30 days of data for over 8000 Wavebouys and Weather Stations around the globe.

Join Pro

Comparision Forecast

View Surf forecast
   
Sat 04/19 3:50am 5ft 6s 5s 18 22 mph 1012.5mb 69f 63f
2:50am 5ft 8s 5s 20 25 mph 1012mb 69f 64f
1:50am 4.5ft 5s 4s 22 25 mph 1011.9mb 69f 67f
12:50am 5ft 5s 4s 20 22 mph 1011.9mb 69f 69f
Fri 04/18 11:50pm 4.5ft 6s 4s 20 25 mph 1012mb 69f 69f
10:50pm 4.5ft 6s 4s 18 22 mph 1012mb 69f 70f
9:50pm 4.5ft 6s 5s 18 22 mph 1011.8mb 69f 70f
8:50pm 4.5ft 6s 5s 18 20 mph 1011.2mb 69f 71f
7:50pm 4.5ft 6s 5s 18 22 mph 1011.3mb 69f 71f
6:50pm 4.5ft 6s 5s 16
mph
1011.5mb 69f 71f
5:50pm 4.5ft 6s 5s 13 16 mph 1011.4mb 69f 71f
4:50pm 5ft 7s 5s 18 20 mph 1012.3mb 69f 71f
3:50pm 4.5ft 6s 5s 16 18 mph 1012.7mb 69f 71f
2:50pm 4.5ft 6s 5s 9
mph
1012.8mb 69f 70f
1:50pm 4.5ft 6s 5s 4 7 mph 1013.2mb 69f 70f
12:50pm 4.5ft 6s 5s 11 13 mph 1014.1mb 69f 70f
11:50am 4.5ft 6s 5s 13 16 mph 1015.1mb 69f 69f
10:50am 4.5ft 6s 5s 18 22 mph 1015.1mb 69f 69f
9:50am 4.5ft 5s 5s 7 11 mph 1015.4mb 69f 67f
8:50am 5ft 6s 5s 13 20 mph 1015.7mb 69f 69f
7:50am 5ft 6s 5s 18 20 mph 1015.8mb 69f 69f
6:50am 6ft 6s 5s 20 25 mph 1015.6mb 69f 69f
5:50am 6.5ft 6s 5s 22 27 mph 1015mb 69f 69f
4:50am 7ft 6s 5s 22 27 mph 1014.8mb 69f 69f
3:50am 6ft 6s 5s 25 29 mph 1015.5mb 69f 69f
2:50am 6ft 6s 5s 27 31 mph 1016.3mb 69f 69f
1:50am 6ft 6s 5s 25 29 mph 1018mb 69f 69f
12:50am 5ft 6s 5s 27 31 mph 1018.7mb 69f 70f
Thu 04/17 11:50pm 5ft 6s 5s 22 29 mph 1018.9mb 69f 70f
10:50pm 4.5ft 5s 4s 22 25 mph 1019.1mb 69f 71f
9:50pm 4.5ft 5s 4s 25 29 mph 1018.9mb 69f 70f
8:50pm 4.5ft 5s 4s 25 29 mph 1019mb 69f 70f
7:50pm 4.5ft 5s 4s 22 31 mph 1018.9mb 69f 72f
6:50pm 4.5ft 6s 5s 20 25 mph 1018.6mb 69f 71f
5:50pm 4.5ft 6s 5s 16 20 mph 1018.9mb 69f 70f
4:50pm 5ft 6s 5s 16 20 mph 1019mb 69f 69f
3:50pm 6ft 6s 5s 18 22 mph 1019.6mb 69f 69f
2:50pm 6ft 7s 5s 20 25 mph 1020.3mb 69f 68f
1:50pm 6ft 7s 5s 22 27 mph 1021.2mb 69f 67f
12:50pm 6ft 6s 5s 22 27 mph 1021.9mb 69f 67f
11:50am 6ft 7s 5s 22 29 mph 1021.9mb 69f 67f
10:50am 6.5ft 7s 5s 22 27 mph 1021.8mb 69f 66f
9:50am 6.5ft 7s 5s 25 29 mph 1021.4mb 69f 65f
8:50am 6ft 7s 5s 22 27 mph 1021.2mb 68f 65f
7:50am 6.5ft 7s 5s 22 27 mph 1020.5mb 68f 65f
6:50am 6.5ft 7s 5s 25 31 mph 1019.5mb 68f 65f
5:50am 6.5ft 7s 5s 22 27 mph 1019.8mb 68f 65f
4:50am 7.5ft 7s 5s 25 29 mph 1019.4mb 69f 65f
3:50am 8ft 7s 6s 22 27 mph 1019.5mb 69f 65f
2:50am 8ft 7s 5s 25 27 mph 1019.6mb 69f 65f
1:50am 7ft 7s 5s 25 31 mph 1019.5mb 69f 65f
12:50am 7ft 7s 5s 29 34 mph 1019.9mb 69f 65f
Wed 04/16 11:50pm 5.5ft 5s 5s 27 31 mph 1020.1mb 69f 66f
10:50pm 4ft 5s 4s 27 31 mph 1020.1mb 69f 66f
9:50pm 3.5ft 5s 4s 22 27 mph 1019.7mb 69f 68f
8:50pm 3.5ft 5s 4s 18 20 mph 1019mb 69f 67f
7:50pm 4ft 5s 4s 18 22 mph 1018.6mb 69f 67f
6:50pm 4.5ft 5s 4s 18 22 mph 1018.5mb 69f 66f
5:50pm 5ft 5s 4s 20 25 mph 1018.8mb 69f 65f
4:50pm 5ft 6s 5s 20 25 mph 1018.9mb 69f 64f
3:50pm 5ft 6s 5s 20 25 mph 1019mb 69f 62f
2:50pm 5ft 6s 5s 18 25 mph 1020mb 69f 60f
1:50pm 5ft 6s 5s 18 22 mph 1020.4mb 69f 58f
12:50pm 5ft 6s 5s 18 25 mph 1020.8mb 69f 56f
11:50am 6ft 7s 5s 18 22 mph 1021.3mb 69f 56f
10:50am 6.5ft 6s 5s 20 22 mph 1020.9mb 69f 56f
9:50am 7ft 7s 5s 22 27 mph 1020.1mb 69f 56f
8:50am 7ft 7s 6s 22 27 mph 1019.7mb 69f 55f
7:50am 7.5ft 7s 5s 25 29 mph 1019mb 69f 55f
6:50am 8ft 7s 6s 25 31 mph 1018.6mb 69f 55f
5:50am 9ft 7s 6s 25 29 mph 1018.5mb 69f 56f
4:50am 9ft 7s 6s 22 29 mph 1018.2mb 69f 56f
3:50am 8.5ft 7s 6s 27 31 mph 1017.4mb 69f 56f
2:50am 9ft 7s 6s 27 34 mph 1017.3mb 69f 57f
1:50am 9ft 8s 6s 27 34 mph 1017.7mb 69f 58f
12:50am 8ft 6s 6s 27 34 mph 1017.4mb 69f 58f
Tue 04/15 11:50pm 8ft 9s 6s 29 36 mph 1016.6mb 69f 58f
10:50pm 8.5ft 9s 6s 25 31 mph 1016.3mb 69f 60f
9:50pm 8.5ft 8s 6s 22 27 mph 1015.2mb 69f 62f
8:50pm 8ft 8s 6s 22 25 mph 1014.2mb 69f 63f
7:50pm 9ft 8s 6s 20 27 mph 1013.4mb 70f 62f
6:50pm 8.5ft 7s 6s 22 27 mph 1013mb 70f 63f
5:50pm 8ft 7s 6s 27 31 mph 1012.4mb 70f 63f
4:50pm 6ft 6s 5s 27 31 mph 1012.1mb 70f 64f
3:50pm 5ft 5s 4s 25 31 mph 1011.7mb 70f 64f
2:50pm 4ft 6s 4s 27 34 mph 1011.5mb 70f 64f
1:50pm 3.5ft 5s 4s 25 27 mph 1010.6mb 70f 68f
12:50pm 4.5ft 5s 5s 11
mph
1010.3mb 70f 71f
11:50am 4.5ft 5s 4s 18 22 mph 1011.1mb 70f 71f
10:50am 4ft 5s 4s 18 20 mph 1010.5mb 70f 74f
9:50am 4ft 5s 4s 18 22 mph 1009.4mb 70f 74f